Accueil
METAR-TAF:

METAR-TAF

Aéroports :

Hahn, Allemagne

Aéroport de Francfort-Hahn

latitude: 49-57N, longitude: 007-16E, altitude: 491 m

Observation

Le bulletin a été fait il y a 26 minutes, à 09:50 UTC
Vent 8 kt de ouest/sud-ouest, variant entre sud/sud-ouest et ouest/nord-ouest
Température 7°C
Humidité 53%
Pression 1013 hPa
Visibilité 10 km ou plus
Nuages fragmentés à une hauteur de 3700 ft

METAR: EDFH 280950Z 24008KT 200V290 9999 BKN037 07/M02 Q1013

Heure: 12:16 (10:16 UTC)

Prévision

Le bulletin a été fait il y a 5 heures et 16 minutes, à 05:00 UTC
Prévision valable du 28 à 06 UTC au 29 à 06 UTC
Vent 7 kt de ouest
Visibilité 10 km ou plus
Quelques nuages à une hauteur de 3000 ft
Probabilité 30% :
Temporairement
du 28 à 13 UTC au 28 à 19 UTC
Nuages fragmentés à une hauteur de 3500 ft, Cumulus congestus.
averses de pluie

TAF: EDFH 280500Z 2806/2906 28007KT 9999 FEW030 PROB30 TEMPO 2813/2819 SHRA BKN035TCU

Observations et prévisions météorologiques de plus de 4000 aéroports (messages METAR et TAF).

Les stations disponibles sont représentées par des disques jaunes et rouges sur la carte.

Passer la souris dessus pour voir le nom de la station.

Cliquer dessus pour voir les observations et prévisions météorologiques.

Pour changer de carte: cliquez sur les boutons verts avec une croix noire pour zoomer, sur le bouton vert avec un tiret pour effectuer un zoom arrière, ou sur les flèches vertes pour les cartes adjacentes.


METAR-TAF: